createdAt,value
2022-09-12T00:00:27.223Z,15.44
2022-09-12T00:04:08.660Z,15.34
2022-09-12T00:06:08.631Z,15.32
2022-09-12T00:08:08.634Z,15.28
2022-09-12T00:10:08.677Z,15.16
2022-09-12T00:12:08.641Z,15.16
2022-09-12T00:14:08.627Z,15.19
2022-09-12T00:16:08.691Z,15.16
2022-09-12T00:18:25.225Z,15.1
2022-09-12T00:20:25.270Z,15.14
2022-09-12T00:22:25.227Z,15.16
2022-09-12T00:24:25.194Z,15.19
2022-09-12T00:26:25.224Z,15.12
2022-09-12T00:28:25.203Z,14.98
2022-09-12T00:30:25.193Z,14.99
2022-09-12T00:32:25.213Z,14.99
2022-09-12T00:33:37.563Z,14.99
2022-09-12T00:35:37.587Z,14.93
2022-09-12T00:37:37.552Z,14.9
2022-09-12T00:39:37.583Z,14.95
2022-09-12T00:41:37.548Z,14.91
2022-09-12T00:43:37.552Z,14.91
2022-09-12T00:45:37.627Z,14.85
2022-09-12T00:47:37.542Z,14.79
2022-09-12T00:49:40.504Z,14.77
2022-09-12T00:51:40.536Z,14.78
2022-09-12T00:53:40.547Z,14.78
2022-09-12T00:55:40.518Z,14.83
2022-09-12T00:57:40.521Z,14.78
2022-09-12T00:59:40.504Z,14.66
2022-09-12T01:01:40.634Z,14.66
2022-09-12T01:04:30.379Z,14.64
2022-09-12T01:06:30.351Z,14.66
2022-09-12T01:08:30.380Z,14.66
2022-09-12T01:10:30.407Z,14.61
2022-09-12T01:12:30.354Z,14.56
2022-09-12T01:14:30.351Z,14.53
2022-09-12T01:16:30.467Z,14.51
2022-09-12T01:19:16.389Z,14.36
2022-09-12T01:21:16.342Z,14.37
2022-09-12T01:23:16.346Z,14.44
2022-09-12T01:25:16.419Z,14.45
2022-09-12T01:27:16.407Z,14.4
2022-09-12T01:29:16.352Z,14.34
2022-09-12T01:31:16.379Z,14.3
2022-09-12T01:34:46.145Z,14.31
2022-09-12T01:36:46.099Z,14.34
2022-09-12T01:38:46.229Z,14.35
2022-09-12T01:40:46.124Z,14.32
2022-09-12T01:42:46.089Z,14.19
2022-09-12T01:44:46.131Z,14.14
2022-09-12T01:46:46.096Z,14.15
2022-09-12T01:49:50.694Z,14.15
2022-09-12T01:51:50.656Z,14.05
2022-09-12T01:53:50.643Z,14.06
2022-09-12T01:55:50.710Z,13.97
2022-09-12T01:57:50.650Z,13.96
2022-09-12T01:59:50.640Z,13.91
2022-09-12T02:01:50.688Z,13.96
2022-09-12T02:05:04.531Z,13.96
2022-09-12T02:07:04.472Z,13.91
2022-09-12T02:09:04.513Z,13.88
2022-09-12T02:11:04.506Z,13.87
2022-09-12T02:13:04.479Z,13.81
2022-09-12T02:15:04.515Z,13.85
2022-09-12T02:17:04.491Z,13.83
2022-09-12T02:20:21.317Z,13.84
2022-09-12T02:22:14.104Z,13.87
2022-09-12T02:24:14.053Z,13.84
2022-09-12T02:26:14.071Z,13.78
2022-09-12T02:28:14.059Z,13.77
2022-09-12T02:30:14.096Z,13.86
2022-09-12T02:32:14.050Z,13.85
2022-09-12T02:35:01.587Z,13.87
2022-09-12T02:37:01.557Z,13.78
2022-09-12T02:39:01.565Z,13.67
2022-09-12T02:41:01.602Z,13.64
2022-09-12T02:43:01.585Z,13.56
2022-09-12T02:45:01.590Z,13.57
2022-09-12T02:47:01.555Z,13.63
2022-09-12T02:49:01.606Z,13.65
2022-09-12T02:50:09.380Z,13.67
2022-09-12T02:52:09.356Z,13.61
2022-09-12T02:54:09.411Z,13.64
2022-09-12T02:56:09.361Z,13.6
2022-09-12T02:58:09.378Z,13.59
2022-09-12T03:00:09.377Z,13.57
2022-09-12T03:02:09.445Z,13.5
2022-09-12T03:04:09.362Z,13.54
2022-09-12T03:06:03.662Z,13.59
2022-09-12T03:08:03.619Z,13.53
2022-09-12T03:10:03.630Z,13.51
2022-09-12T03:12:03.644Z,13.46
2022-09-12T03:14:03.656Z,13.44
2022-09-12T03:16:03.707Z,13.44
2022-09-12T03:18:03.714Z,13.47
2022-09-12T03:21:04.738Z,13.46
2022-09-12T03:23:04.773Z,13.46
2022-09-12T03:25:04.734Z,13.41
2022-09-12T03:27:04.811Z,13.37
2022-09-12T03:29:04.733Z,13.28
2022-09-12T03:31:04.801Z,13.28
2022-09-12T03:33:04.737Z,13.23
2022-09-12T03:35:49.546Z,13.14
2022-09-12T03:37:49.525Z,13.04
2022-09-12T03:39:49.600Z,13.05
2022-09-12T03:41:49.539Z,13.1
2022-09-12T03:43:49.521Z,13.1
2022-09-12T03:45:49.593Z,13.1
2022-09-12T03:47:49.555Z,13.08
2022-09-12T03:51:20.725Z,13.03
2022-09-12T03:53:20.710Z,13.01
2022-09-12T03:55:20.743Z,12.97
2022-09-12T03:57:20.706Z,12.85
2022-09-12T03:59:20.707Z,12.8
2022-09-12T04:01:20.830Z,12.8
2022-09-12T04:03:20.740Z,12.9
2022-09-12T04:06:20.316Z,12.89
2022-09-12T04:08:20.265Z,12.9
2022-09-12T04:10:20.252Z,12.94
2022-09-12T04:12:20.258Z,12.92
2022-09-12T04:14:20.247Z,12.94
2022-09-12T04:16:20.277Z,12.94
2022-09-12T04:18:20.288Z,12.93
2022-09-12T04:21:09.598Z,13.01
2022-09-12T04:23:09.609Z,13.06
2022-09-12T04:25:09.564Z,13.1
2022-09-12T04:27:09.558Z,13.14
2022-09-12T04:29:09.627Z,13.15
2022-09-12T04:31:09.560Z,13.22
2022-09-12T04:33:09.565Z,13.26
2022-09-12T04:35:09.574Z,13.34
2022-09-12T04:36:47.317Z,13.38
2022-09-12T04:38:47.340Z,13.62
2022-09-12T04:40:47.325Z,14.29
2022-09-12T04:42:47.293Z,14.87
2022-09-12T04:44:47.340Z,15.73
2022-09-12T04:46:47.291Z,17.78
2022-09-12T04:48:47.532Z,18.29
2022-09-12T04:52:07.004Z,17.44
2022-09-12T04:54:07.241Z,18.82
2022-09-12T04:56:06.978Z,20.97
2022-09-12T04:58:06.981Z,21.76
2022-09-12T05:00:07.435Z,20.92
2022-09-12T05:02:07.051Z,20.36
2022-09-12T05:04:07.202Z,22.01
2022-09-12T05:07:22.437Z,21.75
2022-09-12T05:09:22.434Z,21.4
2022-09-12T05:11:24.913Z,19.91
2022-09-12T05:13:22.390Z,19.4
2022-09-12T05:15:22.383Z,19.54
2022-09-12T05:17:22.401Z,19.54
2022-09-12T05:19:22.433Z,18.88
2022-09-12T05:22:18.781Z,19.43
2022-09-12T05:24:19.108Z,18.69
2022-09-12T05:26:19.011Z,17.8
2022-09-12T05:28:19.166Z,17.23
2022-09-12T05:30:18.879Z,17
2022-09-12T05:32:18.866Z,16.75
2022-09-12T05:34:18.926Z,16.66
2022-09-12T05:37:34.818Z,16.73
2022-09-12T05:39:34.844Z,17.42
2022-09-12T05:41:34.819Z,17.43
2022-09-12T05:43:34.810Z,17.58
2022-09-12T05:45:34.847Z,17.82
2022-09-12T05:47:34.813Z,18.21
2022-09-12T05:49:34.798Z,17.95
2022-09-12T05:52:34.823Z,17.47
2022-09-12T05:54:34.778Z,17.81
2022-09-12T05:56:34.805Z,18.05
2022-09-12T05:58:34.861Z,18.12
2022-09-12T06:00:34.857Z,17.98
2022-09-12T06:02:34.866Z,17.93
2022-09-12T06:04:34.773Z,18.26
2022-09-12T06:07:18.626Z,17.92
2022-09-12T06:09:18.686Z,17.68
2022-09-12T06:11:18.611Z,17.69
2022-09-12T06:13:18.682Z,17.52
2022-09-12T06:15:18.615Z,17.69
2022-09-12T06:17:18.660Z,18.09
2022-09-12T06:19:18.621Z,17.87
2022-09-12T06:21:18.624Z,17.71
2022-09-12T06:22:31.439Z,17.35
2022-09-12T06:24:31.480Z,16.91
2022-09-12T06:26:31.466Z,17.43
2022-09-12T06:28:31.499Z,17.78
2022-09-12T06:30:31.701Z,17.98
2022-09-12T06:32:31.424Z,18.12
2022-09-12T06:34:31.466Z,18.08
2022-09-12T06:36:31.422Z,18.6
2022-09-12T06:38:23.539Z,18.64
2022-09-12T06:40:23.547Z,18.5
2022-09-12T06:50:51.616Z,17.42
2022-09-12T06:52:51.611Z,17.57
2022-09-12T06:54:51.580Z,17.27
2022-09-12T06:56:51.554Z,18.01
2022-09-12T06:58:51.603Z,18
2022-09-12T07:00:53.216Z,18.24
2022-09-12T07:02:51.566Z,18.47
2022-09-12T07:04:51.617Z,18.24
2022-09-12T07:06:59.835Z,18.65
2022-09-12T07:08:59.823Z,18.61
2022-09-12T07:10:59.791Z,19.01
2022-09-12T07:12:59.795Z,19.66
2022-09-12T07:14:59.805Z,19.56
2022-09-12T07:16:59.829Z,20.11
2022-09-12T07:18:59.777Z,20.5
2022-09-12T07:22:09.796Z,20.73
2022-09-12T07:24:09.786Z,20.14
2022-09-12T07:26:09.766Z,20.12
2022-09-12T07:28:09.810Z,19.37
2022-09-12T07:30:09.779Z,19.6
2022-09-12T07:32:09.814Z,19.27
2022-09-12T07:34:09.764Z,19.1
2022-09-12T07:36:44.120Z,19.49
2022-09-12T07:38:44.258Z,19.62
2022-09-12T07:40:44.134Z,19.21
2022-09-12T07:42:44.142Z,19.07
2022-09-12T07:44:44.114Z,18.83
2022-09-12T07:46:44.156Z,18.85
2022-09-12T07:48:44.102Z,19.19
2022-09-12T07:51:52.716Z,19.53
2022-09-12T07:53:52.717Z,19.69
2022-09-12T07:55:52.743Z,19.3
2022-09-12T07:57:52.688Z,19.34
2022-09-12T07:59:53.419Z,19.1
2022-09-12T08:01:52.687Z,19.57
2022-09-12T08:03:52.693Z,19.75
2022-09-12T08:05:52.733Z,19.88
2022-09-12T08:07:06.372Z,20.25
2022-09-12T08:09:06.398Z,20.33
2022-09-12T08:11:06.385Z,19.88
2022-09-12T08:13:06.369Z,19.54
2022-09-12T08:15:06.354Z,20
2022-09-12T08:17:06.402Z,20.49
2022-09-12T08:19:07.047Z,20.79
2022-09-12T08:22:31.928Z,19.89
2022-09-12T08:24:31.951Z,20.03
2022-09-12T08:26:31.928Z,19.77
2022-09-12T08:28:31.924Z,20.05
2022-09-12T08:30:31.972Z,20.46
2022-09-12T08:32:31.911Z,20.8
2022-09-12T08:34:31.917Z,20.87
2022-09-12T08:37:19.310Z,19.94
2022-09-12T08:39:19.329Z,20.04
2022-09-12T08:41:19.395Z,20.68
2022-09-12T08:43:19.344Z,21.6
2022-09-12T08:45:19.357Z,21.93
2022-09-12T08:47:19.296Z,21.17
2022-09-12T08:49:19.297Z,21.47
2022-09-12T08:51:19.330Z,21.19
2022-09-12T08:52:47.660Z,21.14
2022-09-12T08:54:47.639Z,21.51
2022-09-12T08:56:47.720Z,21.08
2022-09-12T08:58:47.688Z,20.82
2022-09-12T09:00:47.656Z,20.99
2022-09-12T09:02:47.683Z,21.33
2022-09-12T09:04:47.661Z,21.25
2022-09-12T09:07:42.296Z,21.36
2022-09-12T09:09:42.303Z,21.69
2022-09-12T09:11:42.288Z,21.81
2022-09-12T09:13:42.401Z,21.33
2022-09-12T09:15:42.270Z,20.71
2022-09-12T09:17:42.275Z,20.73
2022-09-12T09:19:42.280Z,20.9
2022-09-12T09:21:42.252Z,20.83
2022-09-12T09:23:18.059Z,20.5
2022-09-12T09:25:22.180Z,20.62
2022-09-12T09:27:37.254Z,20.84
2022-09-12T09:29:18.070Z,21.45
2022-09-12T09:31:18.199Z,21.63
2022-09-12T09:33:18.051Z,21.22
2022-09-12T09:35:18.042Z,22.01
2022-09-12T09:38:10.292Z,22.09
2022-09-12T09:40:10.334Z,21.65
2022-09-12T09:42:10.274Z,21.47
2022-09-12T09:44:10.330Z,21.63
2022-09-12T09:46:10.387Z,21.83
2022-09-12T09:48:10.267Z,21.79
2022-09-12T09:50:10.244Z,21.64
2022-09-12T09:53:12.466Z,22.03
2022-09-12T09:55:12.436Z,22.08
2022-09-12T09:57:12.437Z,22.07
2022-09-12T09:59:12.430Z,21.65
2022-09-12T10:01:12.546Z,21.67
2022-09-12T10:03:13.896Z,21.52
2022-09-12T10:05:12.450Z,21.52
2022-09-12T10:07:12.431Z,21.72
2022-09-12T10:08:21.733Z,21.98
2022-09-12T10:10:21.796Z,21.73
2022-09-12T10:12:21.741Z,22.61
2022-09-12T10:14:21.795Z,23.02
2022-09-12T10:16:21.815Z,23.03
2022-09-12T10:18:21.736Z,21.85
2022-09-12T10:20:22.233Z,21.52
2022-09-12T10:22:21.728Z,21.45
2022-09-12T10:23:44.769Z,21.36
2022-09-12T10:25:44.768Z,21.33
2022-09-12T10:27:44.719Z,20.91
2022-09-12T10:29:44.710Z,21.03
2022-09-12T10:31:44.783Z,21.22
2022-09-12T10:33:44.718Z,21.41
2022-09-12T10:35:44.714Z,21.64
2022-09-12T10:39:13.185Z,20.96
2022-09-12T10:41:13.203Z,20.67
2022-09-12T10:43:13.225Z,20.57
2022-09-12T10:45:13.184Z,20.38
2022-09-12T10:47:13.218Z,20.48
2022-09-12T10:49:13.223Z,20.7
2022-09-12T10:51:13.234Z,20.83
2022-09-12T10:54:15.093Z,20.8
2022-09-12T10:56:15.091Z,20.8
2022-09-12T10:58:15.079Z,21.02
2022-09-12T11:00:15.131Z,21.15
2022-09-12T11:02:15.135Z,21.3
2022-09-12T11:04:15.601Z,21.52
2022-09-12T11:06:15.119Z,20.91
2022-09-12T11:09:20.062Z,21.21
2022-09-12T11:11:20.094Z,21.5
2022-09-12T11:13:20.112Z,21.77
2022-09-12T11:15:20.141Z,22.18
2022-09-12T11:17:20.129Z,21.96
2022-09-12T11:19:20.061Z,21.53
2022-09-12T11:21:20.169Z,20.84
2022-09-12T11:24:22.471Z,20.55
2022-09-12T11:26:22.441Z,20.58
2022-09-12T11:28:22.430Z,20.98
2022-09-12T11:30:22.474Z,21.3
2022-09-12T11:32:22.473Z,21.44
2022-09-12T11:34:22.416Z,21.12
2022-09-12T11:36:22.427Z,21.41
2022-09-12T11:39:26.696Z,20.76
2022-09-12T11:41:26.508Z,20.76
2022-09-12T11:43:26.525Z,20.79
2022-09-12T11:45:26.461Z,20.9
2022-09-12T11:47:26.478Z,20.76
2022-09-12T11:49:26.513Z,20.55
2022-09-12T11:51:26.500Z,20.8
2022-09-12T11:53:26.467Z,20.79
2022-09-12T11:55:26.985Z,20.84
2022-09-12T11:57:26.972Z,20.98
2022-09-12T11:59:26.975Z,21.04
2022-09-12T12:01:27.036Z,21.25
2022-09-12T12:03:27.067Z,21.17
2022-09-12T12:05:27.003Z,21.48
2022-09-12T12:07:26.978Z,21.6
2022-09-12T12:10:23.910Z,21.57
2022-09-12T12:12:23.861Z,21.46
2022-09-12T12:14:23.889Z,21.14
2022-09-12T12:16:23.852Z,21.08
2022-09-12T12:18:23.839Z,20.93
2022-09-12T12:20:23.911Z,21.2
2022-09-12T12:22:23.912Z,21.05
2022-09-12T12:25:50.317Z,20.65
2022-09-12T12:27:50.337Z,20.62
2022-09-12T12:29:50.267Z,20.73
2022-09-12T12:31:50.266Z,20.9
2022-09-12T12:33:50.274Z,20.85
2022-09-12T12:35:50.288Z,21
2022-09-12T12:37:50.266Z,21.02
2022-09-12T12:40:44.229Z,20.76
2022-09-12T12:42:44.239Z,20.8
2022-09-12T12:44:44.287Z,20.98
2022-09-12T12:46:44.192Z,20.95
2022-09-12T12:48:44.182Z,21.12
2022-09-12T12:50:44.197Z,21.18
2022-09-12T12:52:44.212Z,21.15
2022-09-12T12:55:35.676Z,21.13
2022-09-12T12:57:35.730Z,21.17
2022-09-12T12:59:35.651Z,21.54
2022-09-12T13:01:35.671Z,21.31
2022-09-12T13:03:35.678Z,21.32
2022-09-12T13:05:35.622Z,21.06
2022-09-12T13:07:35.691Z,20.96
2022-09-12T13:10:48.416Z,20.68
2022-09-12T13:12:45.464Z,20.3
2022-09-12T13:14:45.512Z,20.36
2022-09-12T13:16:45.479Z,20.15
2022-09-12T13:18:45.559Z,20.04
2022-09-12T13:20:45.480Z,20.3
2022-09-12T13:22:45.441Z,20.58
2022-09-12T13:26:00.863Z,20.34
2022-09-12T13:28:00.899Z,20.17
2022-09-12T13:30:00.796Z,20.33
2022-09-12T13:32:00.803Z,20.16
2022-09-12T13:34:00.856Z,20.39
2022-09-12T13:36:00.781Z,20.32
2022-09-12T13:38:00.817Z,20.49
2022-09-12T13:40:48.431Z,20.04
2022-09-12T13:42:48.407Z,20.14
2022-09-12T13:44:48.420Z,20.16
2022-09-12T13:46:48.361Z,20.11
2022-09-12T13:48:48.498Z,20.29
2022-09-12T13:50:48.366Z,20.29
2022-09-12T13:52:48.378Z,20.18
2022-09-12T13:54:48.453Z,20.36
2022-09-12T13:56:35.510Z,20.5
2022-09-12T13:58:35.669Z,20.41
2022-09-12T14:00:35.482Z,20.32
2022-09-12T14:02:35.527Z,20.6
2022-09-12T14:04:35.515Z,20.74
2022-09-12T14:06:35.477Z,20.94
2022-09-12T14:08:35.489Z,20.9
2022-09-12T14:11:38.159Z,21.16
2022-09-12T14:13:38.172Z,20.9
2022-09-12T14:15:38.194Z,20.68
2022-09-12T14:17:38.157Z,20.51
2022-09-12T14:19:38.220Z,20.41
2022-09-12T14:21:38.156Z,20.31
2022-09-12T14:23:38.134Z,20.33
2022-09-12T14:26:38.129Z,20.34
2022-09-12T14:28:38.094Z,20.33
2022-09-12T14:30:38.126Z,20.3
2022-09-12T14:32:38.081Z,20.28
2022-09-12T14:34:38.087Z,20.44
2022-09-12T14:36:38.109Z,20.52
2022-09-12T14:38:38.101Z,20.4
2022-09-12T14:41:20.679Z,20.46
2022-09-12T14:43:20.646Z,20.34
2022-09-12T14:45:20.638Z,20.1
2022-09-12T14:47:20.649Z,20.11
2022-09-12T14:49:20.656Z,20.36
2022-09-12T14:51:20.653Z,20.7
2022-09-12T14:53:20.758Z,20.59
2022-09-12T14:57:55.348Z,20.42
2022-09-12T14:59:55.357Z,20.44
2022-09-12T15:01:55.396Z,20.6
2022-09-12T15:03:55.910Z,20.56
2022-09-12T15:05:55.389Z,20.42
2022-09-12T15:07:55.331Z,20.38
2022-09-12T15:09:55.384Z,20.13
2022-09-12T15:12:21.347Z,20.05
2022-09-12T15:14:21.352Z,20.36
2022-09-12T15:16:21.351Z,20.48
2022-09-12T15:18:21.309Z,20.55
2022-09-12T15:20:21.390Z,20.56
2022-09-12T15:22:21.307Z,20.14
2022-09-12T15:24:21.304Z,20.05
2022-09-12T15:26:21.308Z,19.96
2022-09-12T15:28:12.826Z,20.09
2022-09-12T15:30:12.815Z,20.15
2022-09-12T15:32:12.818Z,19.91
2022-09-12T15:34:12.806Z,20.01
2022-09-12T15:36:12.906Z,20.02
2022-09-12T15:38:12.806Z,20.03
2022-09-12T15:40:12.877Z,19.96
2022-09-12T15:42:36.065Z,19.71
2022-09-12T15:44:36.045Z,19.84
2022-09-12T15:46:36.137Z,19.75
2022-09-12T15:48:36.032Z,19.72
2022-09-12T15:50:36.115Z,19.52
2022-09-12T15:52:36.146Z,19.41
2022-09-12T15:54:36.036Z,19.28
2022-09-12T15:56:36.106Z,19.28
2022-09-12T15:57:54.782Z,19.26
2022-09-12T15:59:54.805Z,19.17
2022-09-12T16:01:54.803Z,19.06
2022-09-12T16:03:54.752Z,19.08
2022-09-12T16:05:54.797Z,18.97
2022-09-12T16:07:54.801Z,18.71
2022-09-12T16:09:54.742Z,18.68
2022-09-12T16:13:06.971Z,18.47
2022-09-12T16:15:07.026Z,18.4
2022-09-12T16:17:06.981Z,18.36
2022-09-12T16:19:07.008Z,18.36
2022-09-12T16:21:10.073Z,18.25
2022-09-12T16:23:07.031Z,18.16
2022-09-12T16:25:06.976Z,18.17
2022-09-12T16:28:52.495Z,17.97
2022-09-12T16:30:52.857Z,17.86
2022-09-12T16:32:52.258Z,17.78
2022-09-12T16:34:52.279Z,17.79
2022-09-12T16:36:52.236Z,17.77
2022-09-12T16:38:52.309Z,17.76
2022-09-12T16:40:52.231Z,17.59
2022-09-12T16:43:18.721Z,17.6
2022-09-12T16:45:18.742Z,17.59
2022-09-12T16:47:18.692Z,17.51
2022-09-12T16:49:18.751Z,17.4
2022-09-12T16:51:18.693Z,17.3
2022-09-12T16:53:18.678Z,17.32
2022-09-12T16:55:18.789Z,17.26
2022-09-12T16:57:18.672Z,17.27
2022-09-12T16:59:02.718Z,17.19
2022-09-12T17:01:02.677Z,17.12
2022-09-12T17:03:02.736Z,17.06
2022-09-12T17:05:02.736Z,16.99
2022-09-12T17:07:02.661Z,16.88
2022-09-12T17:09:02.694Z,16.83
2022-09-12T17:11:02.679Z,16.79
2022-09-12T17:14:11.405Z,16.65
2022-09-12T17:16:11.227Z,16.6
2022-09-12T17:18:11.164Z,16.59
2022-09-12T17:20:11.191Z,16.5
2022-09-12T17:22:11.283Z,16.47
2022-09-12T17:24:11.201Z,16.41
2022-09-12T17:26:11.377Z,16.36
2022-09-12T17:29:27.539Z,16.4
2022-09-12T17:31:27.750Z,16.41
2022-09-12T17:33:27.537Z,16.4
2022-09-12T17:35:27.579Z,16.42
2022-09-12T17:37:27.520Z,16.41
2022-09-12T17:39:27.583Z,16.36
2022-09-12T17:41:27.599Z,16.37
2022-09-12T17:44:29.763Z,16.33
2022-09-12T17:46:29.713Z,16.32
2022-09-12T17:48:29.717Z,16.34
2022-09-12T17:50:32.389Z,16.29
2022-09-12T17:52:29.771Z,16.24
2022-09-12T17:54:29.739Z,16.15
2022-09-12T17:56:29.788Z,16.2
2022-09-12T17:59:40.315Z,16.22
2022-09-12T18:01:40.420Z,16.23
2022-09-12T18:03:40.336Z,16.27
2022-09-12T18:05:40.270Z,16.17
2022-09-12T18:07:44.021Z,16.03
2022-09-12T18:09:40.280Z,16.14
2022-09-12T18:11:40.395Z,16.03
2022-09-12T18:14:27.564Z,15.99
2022-09-12T18:16:27.447Z,15.95
2022-09-12T18:18:27.666Z,15.79
2022-09-12T18:20:27.492Z,15.81
2022-09-12T18:22:27.510Z,15.8
2022-09-12T18:24:27.489Z,15.7
2022-09-12T18:26:27.431Z,15.69
2022-09-12T18:29:59.057Z,15.62
2022-09-12T18:31:47.090Z,15.55
2022-09-12T18:33:47.264Z,15.55
2022-09-12T18:35:47.094Z,15.42
2022-09-12T18:37:47.098Z,15.45
2022-09-12T18:39:47.133Z,15.43
2022-09-12T18:41:47.096Z,15.39
2022-09-12T18:45:09.248Z,15.29
2022-09-12T18:47:09.200Z,15.23
2022-09-12T18:49:09.223Z,15.21
2022-09-12T18:51:09.199Z,15.19
2022-09-12T18:53:09.203Z,15.19
2022-09-12T18:55:09.216Z,15.06
2022-09-12T18:57:09.202Z,14.99
2022-09-12T19:00:07.297Z,14.98
2022-09-12T19:02:05.080Z,14.95
2022-09-12T19:04:05.050Z,14.86
2022-09-12T19:06:05.003Z,14.87
2022-09-12T19:08:05.018Z,14.84
2022-09-12T19:10:05.035Z,14.76
2022-09-12T19:12:05.003Z,14.66
2022-09-12T19:15:04.378Z,14.74
2022-09-12T19:17:04.345Z,14.7
2022-09-12T19:19:04.400Z,14.6
2022-09-12T19:21:04.331Z,14.62
2022-09-12T19:23:04.332Z,14.69
2022-09-12T19:25:04.380Z,14.69
2022-09-12T19:27:04.387Z,14.73
2022-09-12T19:30:05.644Z,14.74
2022-09-12T19:32:05.590Z,14.73
2022-09-12T19:34:05.592Z,14.8
2022-09-12T19:36:13.827Z,14.82
2022-09-12T19:38:05.612Z,14.65
2022-09-12T19:40:05.607Z,14.71
2022-09-12T19:42:05.634Z,14.79
2022-09-12T19:44:05.586Z,14.84
2022-09-12T19:45:49.383Z,14.8
2022-09-12T19:47:49.405Z,14.71
2022-09-12T19:49:49.382Z,14.68
2022-09-12T19:51:49.496Z,14.76
2022-09-12T19:53:49.378Z,14.72
2022-09-12T19:55:49.383Z,14.74
2022-09-12T19:57:49.392Z,14.81
2022-09-12T20:00:58.329Z,14.62
2022-09-12T20:02:58.363Z,14.57
2022-09-12T20:04:58.334Z,14.54
2022-09-12T20:06:58.479Z,14.52
2022-09-12T20:08:58.325Z,14.49
2022-09-12T20:10:58.339Z,14.48
2022-09-12T20:12:58.353Z,14.46
2022-09-12T20:16:04.779Z,14.28
2022-09-12T20:18:04.720Z,14.3
2022-09-12T20:20:04.726Z,14.17
2022-09-12T20:22:04.740Z,14.23
2022-09-12T20:24:04.714Z,14.24
2022-09-12T20:26:04.692Z,14.13
2022-09-12T20:28:04.748Z,14.01
2022-09-12T20:31:10.404Z,14.03
2022-09-12T20:33:10.339Z,14.01
2022-09-12T20:35:10.319Z,14.04
2022-09-12T20:37:10.434Z,14.03
2022-09-12T20:39:10.374Z,13.92
2022-09-12T20:41:10.310Z,13.86
2022-09-12T20:43:10.316Z,13.91
2022-09-12T20:46:34.336Z,13.93
2022-09-12T20:48:34.247Z,13.94
2022-09-12T20:50:34.197Z,13.91
2022-09-12T20:52:34.273Z,13.91
2022-09-12T20:54:34.245Z,13.88
2022-09-12T20:56:34.207Z,13.83
2022-09-12T20:58:34.257Z,13.86
2022-09-12T21:01:13.490Z,13.83
2022-09-12T21:03:13.505Z,13.77
2022-09-12T21:05:13.485Z,13.74
2022-09-12T21:07:13.538Z,13.66
2022-09-12T21:09:13.503Z,13.49
2022-09-12T21:11:13.511Z,13.55
2022-09-12T21:13:13.470Z,13.52
2022-09-12T21:16:35.378Z,13.49
2022-09-12T21:18:35.381Z,13.42
2022-09-12T21:20:35.358Z,13.41
2022-09-12T21:22:35.377Z,13.4
2022-09-12T21:24:35.393Z,13.39
2022-09-12T21:26:35.375Z,13.38
2022-09-12T21:28:35.354Z,13.26
2022-09-12T21:31:27.604Z,13.2
2022-09-12T21:33:27.522Z,13.19
2022-09-12T21:35:27.518Z,13.15
2022-09-12T21:37:27.567Z,13.04
2022-09-12T21:39:27.518Z,13.03
2022-09-12T21:41:27.681Z,13.09
2022-09-12T21:43:27.533Z,13.15
2022-09-12T21:45:27.525Z,13.14
2022-09-12T21:46:53.185Z,13.18
2022-09-12T21:48:53.172Z,13.13
2022-09-12T21:50:53.195Z,13.13
2022-09-12T21:52:53.148Z,13.08
2022-09-12T21:54:53.137Z,13.04
2022-09-12T21:56:53.204Z,12.97
2022-09-12T21:58:53.143Z,13.01
2022-09-12T22:01:43.728Z,12.95
2022-09-12T22:03:43.761Z,12.9
2022-09-12T22:05:43.699Z,12.74
2022-09-12T22:07:43.716Z,12.82
2022-09-12T22:09:43.757Z,12.88
2022-09-12T22:11:43.725Z,12.88
2022-09-12T22:13:43.791Z,12.84
2022-09-12T22:15:43.685Z,12.86
2022-09-12T22:17:21.080Z,12.8
2022-09-12T22:19:21.064Z,12.76
2022-09-12T22:21:21.067Z,12.73
2022-09-12T22:23:24.490Z,12.73
2022-09-12T22:25:21.055Z,12.7
2022-09-12T22:27:21.047Z,12.7
2022-09-12T22:29:21.160Z,12.63
2022-09-12T22:32:15.562Z,12.51
2022-09-12T22:34:15.488Z,12.74
2022-09-12T22:36:15.494Z,12.87
2022-09-12T22:38:15.495Z,12.76
2022-09-12T22:40:15.638Z,12.7
2022-09-12T22:42:15.519Z,12.62
2022-09-12T22:44:15.515Z,12.72
2022-09-12T22:47:32.278Z,12.85
2022-09-12T22:49:32.232Z,12.87
2022-09-12T22:51:32.238Z,12.94
2022-09-12T22:53:32.177Z,12.96
2022-09-12T22:55:32.249Z,12.98
2022-09-12T22:57:32.216Z,13.02
2022-09-12T22:59:32.185Z,13.07
2022-09-12T23:02:52.846Z,13.06
2022-09-12T23:04:52.723Z,13
2022-09-12T23:06:52.782Z,13.03
2022-09-12T23:08:52.757Z,12.87
2022-09-12T23:10:52.726Z,12.83
2022-09-12T23:12:52.766Z,12.8
2022-09-12T23:14:52.716Z,12.71
2022-09-12T23:18:28.740Z,12.73
2022-09-12T23:20:28.723Z,12.66
2022-09-12T23:22:28.713Z,12.56
2022-09-12T23:24:28.698Z,12.58
2022-09-12T23:26:28.697Z,12.55
2022-09-12T23:28:28.744Z,12.52
2022-09-12T23:30:28.708Z,12.43
2022-09-12T23:32:45.847Z,12.47
2022-09-12T23:34:45.916Z,12.45
2022-09-12T23:36:45.847Z,12.41
2022-09-12T23:38:45.865Z,12.36
2022-09-12T23:40:45.855Z,12.35
2022-09-12T23:42:45.850Z,12.28
2022-09-12T23:44:45.870Z,12.24
2022-09-12T23:46:45.842Z,12.13
2022-09-12T23:48:33.192Z,12.27
2022-09-12T23:50:33.186Z,12.23
2022-09-12T23:52:33.227Z,12.17
2022-09-12T23:54:33.177Z,12.05
2022-09-12T23:56:33.169Z,12.07
2022-09-12T23:58:33.195Z,12.09
